Time;durP1;ratioP1;P1;durP2;ratioP2;P2;SDS_P1;SDS_P2;PMS_P1;PMS_P2;Temp;Humidity;BMP_temperature;BMP_pressure;BME280_temperature;BME280_humidity;BME280_pressure;Samples;Min_cycle;Max_cycle;Signal;HPM_P1;HPM_P2
2022/02/13 00:00:36;;;;;;;;;30.00;30.00;;;;;3.55;62.05;101473.06;5028738;28;45155;-83
2022/02/13 00:03:02;;;;;;;;;30.25;28.75;;;;;2.99;61.94;101376.22;5030016;28;45001;-83
2022/02/13 00:05:28;;;;;;;;;39.00;36.25;;;;;3.75;62.01;101518.72;5039430;28;45665;-83
2022/02/13 00:07:53;;;;;;;;;38.00;34.00;;;;;3.17;61.85;101402.66;5049648;28;45002;-83
2022/02/13 00:10:18;;;;;;;;;33.25;31.75;;;;;3.30;62.34;101451.22;5048984;28;45143;-83
2022/02/13 00:12:44;;;;;;;;;33.00;30.00;;;;;2.39;62.29;101264.44;5049747;28;45092;-83
2022/02/13 00:15:09;;;;;;;;;30.33;28.67;;;;;3.34;62.25;101430.78;5020545;28;47182;-84
2022/02/13 00:17:34;;;;;;;;;35.75;32.25;;;;;3.42;62.60;101441.75;5039576;28;45125;-83
2022/02/13 00:20:02;;;;;;;;;36.33;35.00;;;;;2.99;62.26;101365.81;5030102;28;45382;-84
2022/02/13 00:22:28;;;;;;;;;36.00;34.25;;;;;2.46;62.40;101260.59;5046985;28;45116;-82
2022/02/13 00:24:53;;;;;;;;;34.75;30.75;;;;;1.95;62.38;101180.69;5031035;28;47489;-82
2022/02/13 00:27:19;;;;;;;;;31.33;29.67;;;;;3.37;62.45;101411.94;5049021;28;45202;-84
2022/02/13 00:29:44;;;;;;;;;32.33;29.67;;;;;3.30;62.33;101402.78;5049809;28;45045;-83
2022/02/13 00:32:09;;;;;;;;;31.50;31.25;;;;;2.50;62.41;101263.53;5049049;28;45151;-83
2022/02/13 00:34:36;;;;;;;;;43.67;36.00;;;;;3.14;62.67;101372.94;5049884;28;45456;-83
2022/02/13 00:37:02;;;;;;;;;37.25;33.25;;;;;3.62;62.57;101453.63;5030394;28;45462;-84
2022/02/13 00:39:27;;;;;;;;;36.50;34.50;;;;;2.83;62.62;101313.56;5020637;28;45428;-83
2022/02/13 00:41:54;;;;;;;;;39.50;35.00;;;;;2.76;62.75;101300.94;5028769;28;45219;-83
2022/02/13 00:44:19;;;;;;;;;41.25;33.00;;;;;3.22;62.98;101388.31;5044846;28;46579;-82
2022/02/13 00:46:45;;;;;;;;;39.00;35.75;;;;;2.96;62.81;101341.34;5048795;28;45056;-83
2022/02/13 00:49:10;;;;;;;;;35.75;33.75;;;;;3.46;63.12;101428.22;5031043;28;45000;-83
2022/02/13 00:51:36;;;;;;;;;35.00;34.00;;;;;3.04;63.16;101366.16;5053426;28;45168;-84
2022/02/13 00:54:01;;;;;;;;;29.00;26.67;;;;;2.93;63.57;101328.13;5029993;28;47640;-83
2022/02/13 00:56:27;;;;;;;;;36.00;33.75;;;;;3.07;63.26;101351.72;5029938;28;45438;-83
2022/02/13 00:58:52;;;;;;;;;37.75;35.25;;;;;2.05;63.23;101173.72;5029867;28;45215;-83
2022/02/13 01:01:18;;;;;;;;;32.25;31.00;;;;;2.34;63.08;101234.66;5046680;28;45056;-84
2022/02/13 01:03:45;;;;;;;;;32.75;29.50;;;;;3.40;63.37;101406.97;5019224;28;47712;-84
2022/02/13 01:06:11;;;;;;;;;33.00;28.50;;;;;3.18;63.29;101354.22;5028547;28;45328;-83
2022/02/13 01:08:36;;;;;;;;;30.75;28.75;;;;;3.13;63.29;101342.59;5025513;28;45540;-83
2022/02/13 01:11:03;;;;;;;;;36.50;32.75;;;;;3.46;63.38;101399.63;5028955;28;45149;-82
2022/02/13 01:13:29;;;;;;;;;34.00;32.75;;;;;2.40;63.08;101206.56;5028884;28;45908;-82
2022/02/13 01:15:54;;;;;;;;;26.00;25.50;;;;;3.50;63.44;101396.47;5044319;28;45219;-83
2022/02/13 01:18:20;;;;;;;;;17.00;16.50;;;;;2.81;63.12;101268.44;5048688;28;45116;-82
2022/02/13 01:20:45;;;;;;;;;33.25;31.50;;;;;3.31;63.18;101354.34;5047208;28;45354;-83
2022/02/13 01:23:11;;;;;;;;;29.50;26.25;;;;;3.52;63.04;101384.47;5047860;28;45296;-83
2022/02/13 01:25:36;;;;;;;;;29.50;26.00;;;;;3.29;62.99;101337.72;5034463;28;45057;-84
2022/02/13 01:28:03;;;;;;;;;29.50;26.00;;;;;3.18;62.79;101310.06;5025909;28;45162;-83
2022/02/13 01:30:28;;;;;;;;;29.00;24.50;;;;;3.18;62.87;101313.56;5028913;28;45162;-84
2022/02/13 01:32:54;;;;;;;;;29.00;28.75;;;;;2.83;62.88;101251.25;5027255;28;46914;-84
2022/02/13 01:35:19;;;;;;;;;28.67;22.67;;;;;2.53;62.79;101204.09;5010119;28;47410;-83
2022/02/13 01:37:44;;;;;;;;;29.75;28.50;;;;;2.62;62.53;101197.81;5038517;28;46004;-82
2022/02/13 01:40:11;;;;;;;;;29.00;26.50;;;;;3.55;62.99;101373.41;5028987;28;45180;-82
2022/02/13 01:42:36;;;;;;;;;31.50;31.00;;;;;2.94;62.80;101271.13;5048379;28;46518;-83
2022/02/13 01:45:03;;;;;;;;;29.25;26.00;;;;;2.91;63.05;101275.22;5028292;28;45017;-84
2022/02/13 01:47:29;;;;;;;;;33.50;29.75;;;;;3.22;63.20;101335.47;5049002;28;45131;-82
2022/02/13 01:49:55;;;;;;;;;36.00;32.75;;;;;2.98;62.85;101283.53;5035934;28;45325;-82
2022/02/13 01:52:21;;;;;;;;;29.25;28.00;;;;;3.50;63.21;101382.56;5067991;28;45993;-84
2022/02/13 01:54:47;;;;;;;;;26.50;23.00;;;;;3.08;63.00;101309.38;5038947;28;45279;-83
2022/02/13 01:57:12;;;;;;;;;25.75;25.50;;;;;3.21;63.16;101344.97;5046911;28;45026;-83
2022/02/13 01:59:38;;;;;;;;;32.75;31.00;;;;;3.38;63.25;101371.25;5048483;28;45277;-83
2022/02/13 02:02:04;;;;;;;;;31.00;29.00;;;;;3.40;62.96;101374.84;5047762;28;46340;-83
2022/02/13 02:04:30;;;;;;;;;27.50;21.75;;;;;2.13;62.97;101152.69;5046692;28;45238;-82
2022/02/13 02:06:55;;;;;;;;;28.75;28.75;;;;;3.14;63.17;101337.50;5029995;28;45026;-85
2022/02/13 02:09:24;;;;;;;;;26.33;23.67;;;;;3.33;63.24;101373.53;5047158;28;44905;-84
2022/02/13 02:11:49;;;;;;;;;28.50;27.50;;;;;3.16;63.21;101346.31;5029473;28;46448;-83
2022/02/13 02:14:14;;;;;;;;;28.00;25.75;;;;;2.85;63.40;101296.41;5044267;28;45074;-82
2022/02/13 02:16:40;;;;;;;;;26.67;22.33;;;;;2.14;63.37;101162.25;5010414;28;45126;-83
2022/02/13 02:19:09;;;;;;;;;26.75;24.25;;;;;3.25;63.57;101356.47;5036405;28;45264;-84
2022/02/13 02:21:34;;;;;;;;;26.50;25.00;;;;;2.48;63.26;101227.91;5047925;28;45634;-83
2022/02/13 02:24:00;;;;;;;;;32.75;29.50;;;;;2.50;63.62;101223.72;5047495;28;45158;-82
2022/02/13 02:26:25;;;;;;;;;30.25;28.75;;;;;2.53;63.61;101226.56;5046817;28;45244;-84
2022/02/13 02:28:51;;;;;;;;;28.75;25.75;;;;;2.84;63.58;101272.13;5029499;28;45092;-83
2022/02/13 02:31:16;;;;;;;;;29.25;27.50;;;;;2.37;63.57;101190.81;5027372;28;45499;-83
2022/02/13 02:33:41;;;;;;;;;36.25;30.50;;;;;3.06;63.70;101307.47;5026711;28;45278;-84
2022/02/13 02:36:17;;;;;;;;;32.75;30.00;;;;;2.57;63.41;101210.44;5029301;28;45104;-84
2022/02/13 02:38:43;;;;;;;;;29.75;27.25;;;;;2.21;63.79;101143.75;5031552;28;45026;-84
2022/02/13 02:41:08;;;;;;;;;28.25;26.75;;;;;3.12;63.67;101302.72;5051119;28;45625;-83
2022/02/13 02:43:34;;;;;;;;;32.50;27.50;;;;;2.83;63.71;101251.25;5029277;28;45700;-84
2022/02/13 02:45:59;;;;;;;;;33.25;30.75;;;;;2.77;63.64;101240.44;5029229;28;45568;-83
2022/02/13 02:48:24;;;;;;;;;29.00;25.25;;;;;2.38;63.83;101177.03;5033499;28;45264;-83
2022/02/13 02:50:50;;;;;;;;;29.67;27.33;;;;;2.46;63.85;101183.66;5037064;28;46671;-82
2022/02/13 02:53:15;;;;;;;;;31.67;29.00;;;;;2.73;64.03;101239.31;5029999;28;45652;-83
2022/02/13 02:55:40;;;;;;;;;30.67;29.00;;;;;2.93;63.91;101271.91;5032978;28;45351;-82
2022/02/13 02:58:07;;;;;;;;;31.25;26.75;;;;;2.97;64.04;101283.44;5032769;28;45120;-84
2022/02/13 03:00:32;;;;;;;;;28.25;27.00;;;;;2.60;63.86;101218.41;5050430;28;45899;-83
2022/02/13 03:02:58;;;;;;;;;31.00;27.25;;;;;1.72;64.18;101070.13;5031776;28;45379;-84
2022/02/13 03:05:23;;;;;;;;;32.00;28.75;;;;;2.73;64.06;101259.16;5032745;28;44993;-82
2022/02/13 03:07:48;;;;;;;;;31.00;27.75;;;;;2.78;64.01;101265.59;5042708;28;45216;-83
2022/02/13 03:10:14;;;;;;;;;24.75;23.00;;;;;2.23;64.13;101170.72;5030048;28;45745;-82
2022/02/13 03:12:39;;;;;;;;;29.75;27.50;;;;;2.60;63.84;101241.78;5032789;28;45046;-83
2022/02/13 03:15:05;;;;;;;;;26.33;24.33;;;;;2.70;64.32;101262.41;5050125;28;45042;-83
2022/02/13 03:17:30;;;;;;;;;29.00;25.75;;;;;2.76;64.52;101270.69;5050039;28;45021;-82
2022/02/13 03:19:56;;;;;;;;;31.50;31.50;;;;;1.55;64.27;101048.13;5030881;28;47616;-83
2022/02/13 03:22:21;;;;;;;;;30.50;26.00;;;;;2.74;64.41;101259.28;5049560;28;45238;-84
2022/02/13 03:24:46;;;;;;;;;24.25;23.75;;;;;2.54;64.40;101215.38;5047307;28;45021;-83
2022/02/13 03:27:12;;;;;;;;;26.33;24.33;;;;;2.47;64.28;101211.44;5030724;28;45247;-84
2022/02/13 03:29:37;;;;;;;;;23.25;23.00;;;;;2.13;64.27;101143.19;5028364;28;47590;-83
2022/02/13 03:32:03;;;;;;;;;25.50;24.75;;;;;2.60;64.29;101221.03;5030471;28;44987;-83
2022/02/13 03:34:28;;;;;;;;;25.00;22.75;;;;;1.96;64.37;101122.88;5030370;28;45219;-84
2022/02/13 03:36:53;;;;;;;;;28.33;26.33;;;;;1.71;64.67;101081.28;5033300;28;45085;-81
2022/02/13 03:39:20;;;;;;;;;29.50;27.25;;;;;1.63;64.26;101059.09;5050186;28;45713;-84
2022/02/13 03:41:45;;;;;;;;;32.75;28.50;;;;;1.34;64.71;100993.06;5021148;28;45116;-84
2022/02/13 03:44:11;;;;;;;;;28.33;27.00;;;;;2.31;64.58;101175.66;5032284;28;45234;-83
2022/02/13 03:46:36;;;;;;;;;24.50;23.25;;;;;2.41;64.85;101194.50;5050023;28;45350;-84
2022/02/13 03:49:03;;;;;;;;;27.75;23.75;;;;;2.55;64.71;101228.47;5041810;28;45467;-83
2022/02/13 03:51:28;;;;;;;;;24.00;23.00;;;;;2.05;64.85;101142.63;5036738;28;45461;-83
2022/02/13 03:53:53;;;;;;;;;27.00;25.00;;;;;2.52;64.79;101223.06;5049996;28;45197;-84
2022/02/13 03:56:19;;;;;;;;;26.25;24.00;;;;;2.50;64.78;101211.66;5031042;28;45008;-82
2022/02/13 03:58:44;;;;;;;;;23.00;22.33;;;;;1.85;64.75;101101.34;5016044;28;47193;-83
2022/02/13 04:01:09;;;;;;;;;24.25;23.25;;;;;2.47;65.04;101214.03;5030717;28;45828;-83
2022/02/13 04:03:35;;;;;;;;;24.50;21.75;;;;;2.36;65.21;101190.66;5049051;28;44971;-84
2022/02/13 04:06:01;;;;;;;;;23.00;21.25;;;;;2.00;65.08;101124.91;5048312;28;45248;-83
2022/02/13 04:08:26;;;;;;;;;20.50;20.00;;;;;1.48;65.03;101026.06;5031225;28;47375;-83
2022/02/13 04:10:51;;;;;;;;;20.00;19.25;;;;;2.49;65.16;101202.06;5043096;28;45167;-83
2022/02/13 04:13:17;;;;;;;;;25.50;22.75;;;;;2.32;65.35;101176.59;5029640;28;45199;-83
2022/02/13 04:15:43;;;;;;;;;24.25;19.50;;;;;2.51;65.21;101207.34;5030087;28;45039;-83
2022/02/13 04:18:15;;;;;;;;;24.75;21.50;;;;;2.49;65.45;101199.47;5027869;28;45974;-83
2022/02/13 04:20:42;;;;;;;;;21.75;21.00;;;;;2.42;65.40;101189.44;5028868;28;45210;-81
2022/02/13 04:23:07;;;;;;;;;23.75;21.50;;;;;1.46;65.38;101016.38;5036386;28;45257;-84
2022/02/13 04:25:33;;;;;;;;;21.00;20.50;;;;;2.19;65.26;101154.03;5046994;28;44999;-83
2022/02/13 04:27:58;;;;;;;;;22.67;21.00;;;;;2.48;65.33;101195.09;5049270;28;45446;-83
2022/02/13 04:30:23;;;;;;;;;23.00;22.00;;;;;1.89;65.38;101095.63;5050212;28;45295;-84
2022/02/13 04:32:49;;;;;;;;;25.50;23.00;;;;;2.26;65.52;101145.88;5029633;28;45046;-84
2022/02/13 04:35:15;;;;;;;;;21.25;20.25;;;;;2.50;65.54;101184.81;5035464;28;45151;-84
2022/02/13 04:37:41;;;;;;;;;27.50;23.75;;;;;2.14;65.65;101125.94;5048743;28;45295;-82
2022/02/13 04:40:07;;;;;;;;;23.25;20.75;;;;;1.76;65.56;101061.78;5017928;28;45252;-83
2022/02/13 04:42:32;;;;;;;;;26.50;23.00;;;;;2.31;65.19;101143.63;5028781;28;45038;-84
2022/02/13 04:44:57;;;;;;;;;20.00;19.50;;;;;2.02;65.46;101093.16;5028248;28;45090;-83
2022/02/13 04:47:23;;;;;;;;;21.75;20.00;;;;;2.18;65.57;101115.03;5037682;28;45566;-83
2022/02/13 04:49:48;;;;;;;;;21.50;19.25;;;;;1.88;65.31;101052.34;5031425;28;45108;-83
2022/02/13 04:52:14;;;;;;;;;19.25;18.25;;;;;2.22;65.51;101105.00;5068807;28;45419;-83
2022/02/13 04:54:39;;;;;;;;;22.00;19.25;;;;;2.27;65.60;101111.41;5065075;28;45221;-82
2022/02/13 04:57:06;;;;;;;;;18.75;17.75;;;;;2.53;65.39;101160.00;5030646;28;47326;-82
2022/02/13 04:59:33;;;;;;;;;20.25;17.50;;;;;1.62;65.46;100984.72;5038929;28;45534;-83
2022/02/13 05:02:00;;;;;;;;;17.00;17.00;;;;;2.31;65.33;101110.81;5029009;28;45270;-82
2022/02/13 05:04:25;;;;;;;;;20.75;18.50;;;;;1.96;65.46;101047.72;5029173;28;45282;-83
2022/02/13 05:06:50;;;;;;;;;20.00;16.67;;;;;1.82;65.54;101018.19;5025961;28;50534;-80
2022/02/13 05:09:15;;;;;;;;;20.33;19.33;;;;;2.36;65.41;101105.06;5028389;28;45332;-81
2022/02/13 05:11:43;;;;;;;;;20.67;19.33;;;;;2.05;65.83;101053.56;5021999;28;45241;-83
2022/02/13 05:14:09;;;;;;;;;22.50;20.00;;;;;2.51;65.55;101137.31;5030252;28;45229;-83
2022/02/13 05:16:34;;;;;;;;;19.00;19.00;;;;;2.29;65.55;101090.78;5047752;28;45816;-83
2022/02/13 05:18:59;;;;;;;;;21.75;21.75;;;;;1.83;65.57;101006.16;5047733;28;44956;-84
2022/02/13 05:21:25;;;;;;;;;22.00;19.33;;;;;2.04;65.92;101047.50;5037688;28;45126;-83
2022/02/13 05:23:50;;;;;;;;;15.25;15.00;;;;;2.10;65.47;101048.72;5039251;28;44982;-84
2022/02/13 05:26:15;;;;;;;;;19.33;19.00;;;;;2.51;65.64;101120.09;5028477;28;47218;-81
2022/02/13 05:28:41;;;;;;;;;21.75;19.00;;;;;1.36;65.33;100902.53;5048558;28;44962;-84
2022/02/13 05:31:06;;;;;;;;;19.67;16.33;;;;;2.10;65.22;101039.25;5025831;28;45105;-83
2022/02/13 05:33:31;;;;;;;;;20.00;17.25;;;;;1.98;65.33;101007.28;5028783;28;44935;-83
2022/02/13 05:35:57;;;;;;;;;21.75;20.75;;;;;1.84;65.24;100972.56;5028573;28;45311;-83
2022/02/13 05:38:22;;;;;;;;;19.50;18.50;;;;;2.58;65.34;101113.63;5027484;28;45084;-82
2022/02/13 05:40:47;;;;;;;;;20.67;19.67;;;;;2.13;65.19;101017.84;5026999;28;45088;-84
2022/02/13 05:43:13;;;;;;;;;19.00;19.00;;;;;2.01;65.16;100981.56;5010531;28;44901;-83
2022/02/13 05:45:38;;;;;;;;;20.00;19.00;;;;;1.70;65.06;100944.75;5037690;28;45365;-85
2022/02/13 05:48:04;;;;;;;;;21.00;20.25;;;;;2.51;65.04;101070.78;5048118;28;45184;-82
2022/02/13 05:50:29;;;;;;;;;20.75;19.00;;;;;2.06;64.72;100991.47;5036242;28;45139;-83
2022/02/13 05:52:54;;;;;;;;;19.67;19.33;;;;;2.12;64.74;101006.59;5068208;28;45123;-81
2022/02/13 05:55:20;;;;;;;;;27.50;20.75;;;;;2.05;64.67;101004.31;5048107;28;45374;-82
2022/02/13 05:57:45;;;;;;;;;22.00;20.00;;;;;1.75;65.13;100935.63;5048009;28;45073;-84
2022/02/13 06:00:12;;;;;;;;;20.25;16.75;;;;;2.64;65.23;101076.84;5047755;28;45116;-83
2022/02/13 06:02:41;;;;;;;;;20.25;20.00;;;;;1.87;64.90;100945.97;5028510;28;45173;-84
2022/02/13 06:05:07;;;;;;;;;18.00;17.50;;;;;2.39;64.87;101038.78;5043947;28;46021;-84
2022/02/13 06:07:40;;;;;;;;;20.00;18.50;;;;;1.84;64.69;100945.75;5046748;28;45032;-82
2022/02/13 06:10:08;;;;;;;;;21.00;17.25;;;;;2.36;65.03;101032.44;5047930;28;45191;-84
2022/02/13 06:12:33;;;;;;;;;20.50;19.75;;;;;2.29;65.02;101015.56;5031269;28;45346;-82
2022/02/13 06:14:59;;;;;;;;;19.75;18.75;;;;;2.30;64.82;101017.34;5037783;28;45885;-82
2022/02/13 06:17:24;;;;;;;;;22.33;18.67;;;;;1.94;64.61;100958.59;5032168;28;45424;-83
2022/02/13 06:19:49;;;;;;;;;16.00;15.00;;;;;1.61;64.71;100887.09;5013823;28;45149;-83
2022/02/13 06:22:15;;;;;;;;;19.00;17.00;;;;;2.61;64.65;101068.81;5031164;28;45210;-82
2022/02/13 06:24:40;;;;;;;;;19.75;18.50;;;;;2.12;64.70;100967.69;5032809;28;45419;-84
2022/02/13 06:27:06;;;;;;;;;21.00;18.75;;;;;2.08;64.70;100976.03;5031001;28;45046;-83
2022/02/13 06:29:31;;;;;;;;;24.75;20.75;;;;;1.97;65.01;100957.13;5031675;28;45110;-84
2022/02/13 06:31:57;;;;;;;;;21.25;18.75;;;;;2.69;64.88;101089.34;5031688;28;45038;-80
2022/02/13 06:34:23;;;;;;;;;19.50;18.75;;;;;1.86;64.81;100939.88;5032155;28;45818;-84
2022/02/13 06:36:48;;;;;;;;;23.75;22.25;;;;;1.83;65.01;100938.78;5012828;28;45177;-84
2022/02/13 06:39:13;;;;;;;;;19.50;18.50;;;;;2.58;64.78;101059.16;5046146;28;45052;-85
2022/02/13 06:41:39;;;;;;;;;20.00;16.00;;;;;2.09;64.54;100967.47;5051489;28;45230;-84
2022/02/13 06:44:04;;;;;;;;;22.50;17.75;;;;;2.37;64.23;101008.34;5045956;28;45313;-84
2022/02/13 06:46:29;;;;;;;;;19.25;17.50;;;;;2.27;64.34;100999.91;5029860;28;45158;-82
2022/02/13 06:48:55;;;;;;;;;23.00;21.33;;;;;2.07;64.39;100950.91;5045871;28;45081;-83
2022/02/13 06:51:20;;;;;;;;;23.00;19.00;;;;;2.68;64.27;101056.41;5032286;28;45227;-82
2022/02/13 06:53:46;;;;;;;;;19.75;18.75;;;;;2.14;64.33;100952.25;5049160;28;45387;-80
2022/02/13 06:56:13;;;;;;;;;19.75;19.25;;;;;2.16;64.21;100945.47;5050360;28;45083;-83
2022/02/13 06:58:39;;;;;;;;;20.00;17.50;;;;;2.16;64.47;100948.06;5051243;28;45054;-83
2022/02/13 07:01:05;;;;;;;;;20.75;17.75;;;;;2.26;64.60;100973.84;5050592;28;45252;-82
2022/02/13 07:03:31;;;;;;;;;19.00;18.00;;;;;2.13;64.49;100945.25;5050421;28;46243;-85
2022/02/13 07:05:56;;;;;;;;;27.00;23.67;;;;;1.67;64.40;100859.94;5049565;28;45062;-83
2022/02/13 07:08:21;;;;;;;;;16.50;16.00;;;;;2.22;64.35;100962.38;5050389;28;45047;-82
2022/02/13 07:10:47;;;;;;;;;23.25;21.00;;;;;2.52;64.54;101012.03;5050142;28;45268;-83
2022/02/13 07:13:12;;;;;;;;;23.00;20.50;;;;;2.29;64.57;100974.97;5050252;28;45724;-81
2022/02/13 07:15:37;;;;;;;;;23.67;19.67;;;;;2.13;64.64;100943.56;5047642;28;45113;-81
2022/02/13 07:18:04;;;;;;;;;19.00;17.75;;;;;2.12;64.66;100935.66;5061040;28;45064;-82
2022/02/13 07:20:29;;;;;;;;;20.25;20.25;;;;;2.63;64.60;101025.75;5052342;28;45070;-81
2022/02/13 07:22:56;;;;;;;;;17.50;16.75;;;;;2.01;64.57;100906.38;5050228;28;46034;-80
2022/02/13 07:25:22;;;;;;;;;26.75;23.25;;;;;2.01;64.64;100904.69;5050437;28;45309;-81
2022/02/13 07:27:47;;;;;;;;;16.50;16.50;;;;;2.67;64.78;101030.38;5050617;28;45501;-80
2022/02/13 07:30:13;;;;;;;;;20.00;19.67;;;;;2.62;64.65;101019.66;5050997;28;45032;-82
2022/02/13 07:32:41;;;;;;;;;23.00;22.00;;;;;2.71;64.69;101019.38;5050097;28;45146;-81
2022/02/13 07:35:08;;;;;;;;;17.25;16.50;;;;;2.72;64.54;101023.81;5041580;28;45051;-81
2022/02/13 07:37:34;;;;;;;;;18.75;18.75;;;;;2.09;64.70;100909.53;5043145;28;45201;-81
2022/02/13 07:40:00;;;;;;;;;19.25;18.75;;;;;2.29;64.78;100949.03;5039100;28;45268;-82
2022/02/13 07:42:25;;;;;;;;;22.25;19.50;;;;;2.52;64.77;100986.97;5027239;28;46249;-80
2022/02/13 07:44:50;;;;;;;;;18.67;18.33;;;;;2.22;64.77;100927.78;5040095;28;45001;-81
2022/02/13 07:47:16;;;;;;;;;23.75;20.00;;;;;2.32;64.65;100950.97;5050398;28;45097;-83
2022/02/13 07:49:42;;;;;;;;;23.00;20.75;;;;;2.27;65.22;100929.00;5050214;28;45174;-82
2022/02/13 07:52:08;;;;;;;;;20.50;19.00;;;;;2.58;65.15;100976.13;5051320;28;47389;-82
2022/02/13 07:54:33;;;;;;;;;23.75;21.00;;;;;2.93;64.95;101006.22;5052263;28;45507;-81
2022/02/13 07:56:58;;;;;;;;;23.67;22.00;;;;;2.74;64.77;100971.19;5070305;28;45102;-83
2022/02/13 07:59:24;;;;;;;;;26.25;26.00;;;;;2.65;64.85;100944.59;5070306;28;45246;-83
2022/02/13 08:01:49;;;;;;;;;21.50;19.50;;;;;2.93;64.76;100986.34;5067081;28;45298;-80
2022/02/13 08:04:15;;;;;;;;;19.50;17.75;;;;;3.12;64.97;100987.63;5030486;28;45144;-83
2022/02/13 08:06:41;;;;;;;;;25.00;23.75;;;;;2.94;64.70;100944.00;5046141;28;45170;-82
2022/02/13 08:09:06;;;;;;;;;23.75;22.25;;;;;3.26;64.43;100966.06;5049022;28;45522;-83
2022/02/13 08:11:31;;;;;;;;;24.00;23.00;;;;;3.27;64.55;100952.28;5047838;28;45392;-82
2022/02/13 08:13:58;;;;;;;;;24.00;22.00;;;;;2.16;64.05;100771.75;5029681;28;46780;-82
2022/02/13 08:16:23;;;;;;;;;24.25;23.25;;;;;3.21;64.12;100911.22;5045994;28;45195;-82
2022/02/13 08:18:49;;;;;;;;;26.25;24.75;;;;;3.50;64.22;100949.53;5028472;28;45378;-82
2022/02/13 08:21:15;;;;;;;;;24.75;24.50;;;;;3.58;64.57;100944.81;5049215;28;45348;-82
2022/02/13 08:23:40;;;;;;;;;22.00;20.75;;;;;2.61;64.31;100778.25;5045516;28;45189;-82
2022/02/13 08:26:06;;;;;;;;;28.50;25.50;;;;;2.36;63.89;100708.28;5036056;28;45152;-82
2022/02/13 08:28:34;;;;;;;;;26.50;24.25;;;;;3.76;64.46;100939.91;5011687;28;45232;-83
2022/02/13 08:31:00;;;;;;;;;26.75;24.50;;;;;3.36;64.13;100852.47;5044716;28;46043;-82
2022/02/13 08:33:26;;;;;;;;;26.00;26.00;;;;;3.42;64.29;100849.38;5039866;28;45080;-81
2022/02/13 08:35:52;;;;;;;;;26.00;24.25;;;;;3.12;64.23;100804.16;5033888;28;45461;-83
2022/02/13 08:38:17;;;;;;;;;31.00;29.50;;;;;3.68;64.51;100883.94;5025304;28;45120;-85
2022/02/13 08:40:43;;;;;;;;;32.25;25.75;;;;;4.06;64.39;100941.88;5009552;28;45543;-83
2022/02/13 08:43:08;;;;;;;;;17.75;17.25;;;;;3.75;63.92;100870.53;5010515;28;45451;-82
2022/02/13 08:45:36;;;;;;;;;22.75;22.25;;;;;3.85;63.86;100871.22;5011055;28;45332;-84
2022/02/13 08:48:01;;;;;;;;;25.75;22.25;;;;;3.15;63.90;100729.00;5010772;28;45373;-84
2022/02/13 08:50:27;;;;;;;;;26.00;22.00;;;;;4.19;63.84;100906.22;5022543;28;46339;-85
2022/02/13 08:52:53;;;;;;;;;17.50;17.50;;;;;3.17;64.00;100719.66;5032061;28;46239;-85
2022/02/13 08:55:19;;;;;;;;;23.75;23.00;;;;;4.33;63.99;100905.38;5050260;28;45605;-84
2022/02/13 08:57:46;;;;;;;;;23.75;22.25;;;;;3.80;63.74;100809.34;5032729;28;45558;-83
2022/02/13 09:00:14;;;;;;;;;22.25;18.00;;;;;4.03;63.59;100837.66;5050210;28;46173;-84
2022/02/13 09:02:39;;;;;;;;;25.00;24.50;;;;;4.43;63.74;100897.34;5050680;28;45550;-84
2022/02/13 09:05:07;;;;;;;;;27.75;24.50;;;;;3.95;63.74;100799.91;5050487;28;45435;-85
2022/02/13 09:07:38;;;;;;;;;22.00;21.50;;;;;4.54;64.16;100891.09;5050305;28;45663;-83
2022/02/13 09:10:05;;;;;;;;;20.00;18.00;;;;;4.59;63.81;100893.97;5031592;28;46251;-84
2022/02/13 09:12:30;;;;;;;;;25.25;24.50;;;;;4.07;63.97;100791.94;5050573;28;45729;-83
2022/02/13 09:14:55;;;;;;;;;25.67;23.33;;;;;4.50;63.82;100855.28;5050342;28;45387;-84
2022/02/13 09:17:21;;;;;;;;;23.25;21.25;;;;;3.92;64.12;100750.28;5049910;28;45496;-82
2022/02/13 09:19:46;;;;;;;;;26.25;24.75;;;;;4.56;63.73;100846.94;5050113;28;46314;-83
2022/02/13 09:22:12;;;;;;;;;22.33;19.67;;;;;4.67;63.96;100848.47;5049800;28;45365;-83
2022/02/13 09:24:37;;;;;;;;;23.25;22.25;;;;;4.10;63.54;100755.72;5050373;28;45546;-84
2022/02/13 09:27:03;;;;;;;;;24.50;22.25;;;;;4.41;63.65;100800.06;5050372;28;45414;-85
2022/02/13 09:29:28;;;;;;;;;21.75;20.75;;;;;4.70;64.10;100837.34;5032067;28;47435;-83
2022/02/13 09:31:54;;;;;;;;;20.50;20.50;;;;;4.49;63.73;100779.72;5050025;28;45456;-83
2022/02/13 09:34:25;;;;;;;;;22.25;21.25;;;;;5.06;63.51;100865.53;5031792;28;45474;-83
2022/02/13 09:36:51;;;;;;;;;20.00;19.50;;;;;4.70;63.78;100782.69;5031666;28;45392;-82
2022/02/13 09:39:16;;;;;;;;;22.75;22.75;;;;;5.16;63.75;100826.19;5049468;28;45523;-85
2022/02/13 09:41:43;;;;;;;;;28.33;27.67;;;;;4.44;63.87;100679.69;5050358;28;45557;-84
2022/02/13 09:44:09;;;;;;;;;23.50;22.50;;;;;5.38;64.28;100815.28;5048939;28;45366;-83
2022/02/13 09:46:34;;;;;;;;;24.50;23.75;;;;;4.60;63.73;100648.50;5038956;28;45306;-82
2022/02/13 09:49:01;;;;;;;;;23.50;22.25;;;;;5.60;64.08;100803.44;5021330;28;46988;-80
2022/02/13 09:51:26;;;;;;;;;25.25;24.25;;;;;5.13;63.74;100685.34;5041972;28;45447;-84
2022/02/13 09:53:51;;;;;;;;;15.00;14.00;;;;;5.92;63.83;100794.81;5047962;28;45021;-87
2022/02/13 09:56:17;;;;;;;;;27.75;26.50;;;;;6.05;63.97;100789.41;5042590;28;45150;-78
2022/02/13 09:58:43;;;;;;;;;27.25;24.00;;;;;5.04;64.14;100567.63;5016187;28;45557;-82
2022/02/13 10:01:10;;;;;;;;;25.75;25.25;;;;;6.27;63.88;100769.69;5020469;28;45831;-85
2022/02/13 10:03:37;;;;;;;;;31.00;28.00;;;;;6.35;63.84;100763.13;5021765;28;45306;-83
2022/02/13 10:06:11;;;;;;;;;23.75;23.25;;;;;6.41;63.78;100748.69;5025714;28;45572;-80
2022/02/13 10:08:38;;;;;;;;;26.00;23.50;;;;;6.46;63.80;100749.84;5034189;28;46441;-81
2022/02/13 10:11:11;;;;;;;;;32.00;28.50;;;;;6.53;63.94;100745.81;5029209;28;45862;-80
2022/02/13 10:13:41;;;;;;;;;24.50;24.50;;;;;6.46;63.95;100715.00;5031652;28;45507;-82
2022/02/13 10:16:14;;;;;;;;;25.25;22.50;;;;;6.68;63.93;100728.28;5044455;28;45033;-83
2022/02/13 10:18:46;;;;;;;;;24.50;23.00;;;;;6.77;64.18;100727.88;5048275;28;45926;-84
2022/02/13 10:21:11;;;;;;;;;24.00;22.00;;;;;6.69;64.34;100688.28;5027006;28;45413;-81
2022/02/13 10:23:36;;;;;;;;;24.00;22.33;;;;;6.67;64.12;100663.84;5015577;28;45369;-80
2022/02/13 10:26:19;;;;;;;;;30.75;26.25;;;;;7.08;64.44;100708.44;5010011;28;45630;-81
2022/02/13 10:28:54;;;;;;;;;29.00;24.75;;;;;7.22;63.95;100694.31;5010403;28;45468;-82
2022/02/13 10:31:22;;;;;;;;;27.25;25.00;;;;;6.90;63.96;100619.66;5009500;28;45372;-81
2022/02/13 10:34:01;;;;;;;;;28.50;26.50;;;;;7.48;64.06;100687.66;5019494;28;45619;-81
2022/02/13 10:36:26;;;;;;;;;26.50;22.00;;;;;7.11;63.90;100607.56;5023983;28;45414;-79
2022/02/13 10:38:52;;;;;;;;;28.25;25.75;;;;;7.72;64.02;100690.50;5021715;28;45429;-85
2022/02/13 10:41:29;;;;;;;;;25.25;22.00;;;;;7.81;63.96;100684.81;5010989;28;45754;-85
2022/02/13 10:44:07;;;;;;;;;22.75;21.00;;;;;7.75;63.99;100660.16;5029278;28;45420;-83
2022/02/13 10:46:37;;;;;;;;;21.75;20.00;;;;;7.80;64.44;100646.41;5029255;28;45412;-82
2022/02/13 10:49:05;;;;;;;;;22.50;20.75;;;;;8.02;64.23;100678.78;5010926;28;46312;-80
2022/02/13 10:51:32;;;;;;;;;18.00;18.00;;;;;7.75;64.16;100613.06;5043539;28;45546;-80
2022/02/13 10:53:58;;;;;;;;;19.75;19.75;;;;;8.14;64.87;100664.44;5049219;28;45522;-85
2022/02/13 10:56:25;;;;;;;;;23.75;20.50;;;;;7.72;64.34;100578.03;5049235;28;45374;-82
2022/02/13 10:58:55;;;;;;;;;23.50;21.00;;;;;8.22;64.51;100629.00;5033460;28;47719;-81
2022/02/13 11:01:22;;;;;;;;;23.75;21.50;;;;;8.15;64.21;100593.81;5052224;28;46213;-81
2022/02/13 11:03:48;;;;;;;;;21.25;18.50;;;;;7.91;64.33;100520.41;5052822;28;45406;-81
2022/02/13 11:06:14;;;;;;;;;19.75;18.50;;;;;8.17;64.36;100542.41;5034069;28;45746;-81
2022/02/13 11:08:55;;;;;;;;;19.75;18.00;;;;;8.14;64.56;100515.25;5052151;28;46231;-82
2022/02/13 11:11:21;;;;;;;;;14.00;14.00;;;;;8.30;64.08;100515.03;5034059;28;45931;-80